Time;durP1;ratioP1;P1;durP2;ratioP2;P2;SDS_P1;SDS_P2;PMS_P1;PMS_P2;Temp;Humidity;BMP_temperature;BMP_pressure;BME280_temperature;BME280_humidity;BME280_pressure;Samples;Min_cycle;Max_cycle;Signal;HPM_P1;HPM_P2
2024/01/02 00:01:30;;;;;;;23.55;7.90;;;12.20;90.70;;;;;;5116042;27;20030;-79
2024/01/02 00:03:56;;;;;;;21.75;8.20;;;12.20;90.70;;;;;;5134929;27;20039;-79
2024/01/02 00:06:21;;;;;;;20.90;8.10;;;12.20;90.60;;;;;;5134567;27;20027;-78
2024/01/02 00:08:47;;;;;;;19.08;7.80;;;12.10;90.60;;;;;;5134856;27;20033;-78
2024/01/02 00:11:13;;;;;;;23.77;8.20;;;12.00;90.60;;;;;;5134817;27;20059;-79
2024/01/02 00:13:39;;;;;;;20.55;8.38;;;12.00;90.80;;;;;;5116554;27;20447;-80
2024/01/02 00:16:05;;;;;;;20.20;7.85;;;12.00;90.80;;;;;;5134321;27;20073;-78
2024/01/02 00:18:30;;;;;;;21.42;7.93;;;12.00;90.80;;;;;;5134090;27;20019;-79
2024/01/02 00:20:56;;;;;;;17.45;7.82;;;11.90;90.70;;;;;;5134260;27;20035;-77
2024/01/02 00:23:22;;;;;;;28.15;8.35;;;11.90;90.80;;;;;;5115874;27;20035;-80
2024/01/02 00:25:48;;;;;;;22.98;8.10;;;11.90;90.90;;;;;;5133957;27;20442;-78
2024/01/02 00:28:14;;;;;;;20.17;8.50;;;11.90;90.80;;;;;;5134238;27;20042;-78
2024/01/02 00:30:40;;;;;;;20.73;8.10;;;11.90;90.80;;;;;;5133789;27;20467;-79
2024/01/02 00:33:09;;;;;;;20.35;7.82;;;11.90;90.90;;;;;;5133721;27;20096;-79
2024/01/02 00:35:34;;;;;;;20.45;7.85;;;11.90;90.90;;;;;;5133783;27;20031;-78
2024/01/02 00:38:01;;;;;;;21.98;7.97;;;11.90;90.80;;;;;;5133752;27;20035;-78
2024/01/02 00:40:27;;;;;;;20.27;8.23;;;11.90;90.90;;;;;;5133978;27;20027;-78
2024/01/02 00:42:52;;;;;;;21.10;8.68;;;11.80;90.80;;;;;;5114995;28;20534;-78
2024/01/02 00:45:18;;;;;;;23.95;9.05;;;11.80;91.00;;;;;;5133715;28;20119;-78
2024/01/02 00:47:44;;;;;;;21.70;8.57;;;11.80;91.00;;;;;;5133562;28;20390;-78
2024/01/02 00:50:10;;;;;;;19.98;7.32;;;11.80;90.90;;;;;;5133657;28;20035;-78
2024/01/02 00:52:36;;;;;;;27.85;8.38;;;11.70;91.00;;;;;;5133720;28;20387;-79
2024/01/02 00:55:03;;;;;;;21.40;7.97;;;11.80;91.10;;;;;;5133468;28;20110;-79
2024/01/02 00:57:29;;;;;;;18.80;8.32;;;11.70;91.10;;;;;;5133600;28;20045;-78
2024/01/02 00:59:55;;;;;;;24.77;8.20;;;11.70;90.70;;;;;;5115396;28;20113;-79
2024/01/02 01:02:20;;;;;;;21.55;8.40;;;11.70;90.90;;;;;;5133388;28;20024;-78
2024/01/02 01:04:46;;;;;;;26.83;9.50;;;11.70;90.90;;;;;;5134616;27;20033;-78
2024/01/02 01:07:12;;;;;;;24.20;8.43;;;11.60;90.90;;;;;;5137614;27;20034;-80
2024/01/02 01:09:38;;;;;;;20.83;7.70;;;11.60;91.00;;;;;;5138616;27;20069;-79
2024/01/02 01:12:05;;;;;;;18.58;7.38;;;11.50;91.00;;;;;;5139153;27;20084;-79
2024/01/02 01:14:31;;;;;;;19.08;6.80;;;11.40;91.10;;;;;;5137270;27;20047;-79
2024/01/02 01:16:56;;;;;;;19.88;7.60;;;11.40;91.20;;;;;;5137179;27;20034;-79
2024/01/02 01:19:22;;;;;;;22.70;7.32;;;11.40;91.10;;;;;;5137683;27;20039;-79
2024/01/02 01:21:48;;;;;;;17.35;7.18;;;11.40;91.10;;;;;;5137444;27;20039;-78
2024/01/02 01:24:13;;;;;;;17.90;7.43;;;11.40;91.10;;;;;;5137723;27;20055;-79
2024/01/02 01:26:39;;;;;;;17.70;7.70;;;11.40;91.20;;;;;;5137588;27;20035;-80
2024/01/02 01:29:05;;;;;;;21.10;7.18;;;11.40;91.30;;;;;;5137259;27;20027;-78
2024/01/02 01:31:31;;;;;;;19.20;7.38;;;11.40;91.20;;;;;;5137107;27;20035;-77
2024/01/02 01:33:56;;;;;;;20.92;6.85;;;11.40;91.20;;;;;;5137098;27;20039;-76
2024/01/02 01:36:22;;;;;;;19.95;7.03;;;11.30;91.20;;;;;;5137305;27;20080;-80
2024/01/02 01:38:48;;;;;;;18.25;6.70;;;11.30;91.20;;;;;;5137014;27;20497;-79
2024/01/02 01:41:13;;;;;;;20.65;6.57;;;11.40;91.40;;;;;;5136865;27;20562;-77
2024/01/02 01:43:39;;;;;;;20.90;6.68;;;11.30;91.30;;;;;;5136818;27;20051;-78
2024/01/02 01:46:06;;;;;;;21.10;7.25;;;11.40;91.30;;;;;;5137080;27;20028;-79
2024/01/02 01:48:33;;;;;;;17.88;6.90;;;11.40;91.30;;;;;;5136989;27;20031;-77
2024/01/02 01:50:59;;;;;;;19.30;6.18;;;11.40;91.30;;;;;;5136655;27;20027;-78
2024/01/02 01:53:26;;;;;;;20.17;7.28;;;11.30;91.20;;;;;;5136697;27;20122;-79
2024/01/02 01:55:52;;;;;;;16.17;6.43;;;11.30;91.30;;;;;;5136609;27;20023;-78
2024/01/02 01:58:18;;;;;;;16.30;6.57;;;11.30;91.40;;;;;;5136591;27;20455;-78
2024/01/02 02:00:44;;;;;;;19.55;6.65;;;11.30;91.40;;;;;;5136903;27;20023;-80
2024/01/02 02:03:11;;;;;;;22.50;6.90;;;11.30;91.30;;;;;;5136391;27;20123;-78
2024/01/02 02:05:36;;;;;;;17.27;6.40;;;11.20;91.30;;;;;;5137012;27;20038;-77
2024/01/02 02:08:02;;;;;;;17.25;6.28;;;11.20;91.40;;;;;;5136652;27;20078;-78
2024/01/02 02:10:29;;;;;;;16.83;6.30;;;11.10;91.50;;;;;;5136568;27;20033;-77
2024/01/02 02:12:56;;;;;;;17.27;6.60;;;11.10;91.50;;;;;;5117744;27;20454;-78
2024/01/02 02:15:22;;;;;;;22.70;8.10;;;11.10;91.60;;;;;;5135795;27;20055;-80
2024/01/02 02:17:48;;;;;;;20.20;6.55;;;11.00;91.60;;;;;;5136116;27;20113;-78
2024/01/02 02:20:13;;;;;;;21.88;7.38;;;11.00;91.70;;;;;;5136133;27;20092;-77
2024/01/02 02:22:47;;;;;;;21.13;7.55;;;11.00;91.70;;;;;;5136185;27;20440;-78
2024/01/02 02:25:15;;;;;;;21.05;7.03;;;11.00;91.70;;;;;;5117455;27;20114;-77
2024/01/02 02:27:41;;;;;;;21.10;7.63;;;11.00;91.80;;;;;;5135896;27;20031;-78
2024/01/02 02:30:07;;;;;;;16.02;6.65;;;11.00;91.80;;;;;;5135954;27;20031;-78
2024/01/02 02:32:33;;;;;;;19.10;6.70;;;11.00;91.90;;;;;;5136024;27;20027;-78
2024/01/02 02:34:58;;;;;;;20.67;7.28;;;11.00;91.90;;;;;;5135784;27;20035;-79
2024/01/02 02:37:24;;;;;;;13.85;6.45;;;10.90;91.80;;;;;;5135892;27;20439;-78
2024/01/02 02:39:50;;;;;;;16.40;6.22;;;10.90;92.00;;;;;;5117505;27;20067;-78
2024/01/02 02:42:16;;;;;;;23.38;7.32;;;10.90;92.00;;;;;;5136117;27;20067;-79
2024/01/02 02:44:43;;;;;;;20.45;6.90;;;10.80;92.00;;;;;;5140255;27;20383;-78
2024/01/02 02:47:09;;;;;;;17.60;6.95;;;10.80;92.10;;;;;;5137785;27;20043;-79
2024/01/02 02:49:39;;;;;;;15.95;6.78;;;10.70;92.10;;;;;;5135784;27;20034;-79
2024/01/02 02:52:05;;;;;;;20.33;6.35;;;10.70;92.10;;;;;;5135590;27;20035;-78
2024/01/02 02:54:31;;;;;;;17.00;5.93;;;10.70;92.20;;;;;;5135606;27;20032;-78
2024/01/02 02:56:56;;;;;;;16.63;6.25;;;10.70;92.30;;;;;;5117094;27;20066;-78
2024/01/02 02:59:23;;;;;;;18.52;6.57;;;10.60;92.20;;;;;;5117026;27;20031;-79
2024/01/02 03:01:48;;;;;;;15.50;6.55;;;10.60;92.30;;;;;;5135430;27;20427;-78
2024/01/02 03:04:14;;;;;;;15.52;6.28;;;10.60;92.20;;;;;;5135117;27;20069;-78
2024/01/02 03:06:40;;;;;;;17.65;6.57;;;10.60;92.30;;;;;;5135266;27;20027;-79
2024/01/02 03:09:06;;;;;;;20.38;6.50;;;10.60;92.20;;;;;;5135158;27;20035;-78
2024/01/02 03:11:32;;;;;;;16.70;6.85;;;10.60;92.20;;;;;;5135017;27;20553;-78
2024/01/02 03:13:58;;;;;;;19.10;7.10;;;10.60;92.30;;;;;;5134979;27;20035;-77
2024/01/02 03:16:24;;;;;;;16.15;6.78;;;10.50;92.30;;;;;;5135327;27;20042;-78
2024/01/02 03:18:50;;;;;;;19.02;6.80;;;10.50;92.40;;;;;;5135106;27;20486;-78
2024/01/02 03:21:16;;;;;;;15.75;6.32;;;10.50;92.50;;;;;;5134860;27;20544;-78
2024/01/02 03:23:42;;;;;;;17.10;6.28;;;10.50;92.50;;;;;;5134846;27;20375;-78
2024/01/02 03:26:10;;;;;;;20.13;7.18;;;10.50;92.40;;;;;;5134730;27;20031;-77
2024/01/02 03:28:36;;;;;;;14.90;6.72;;;10.50;92.50;;;;;;5134261;27;20493;-78
2024/01/02 03:31:03;;;;;;;20.48;7.00;;;10.60;92.50;;;;;;5116068;27;20031;-78
2024/01/02 03:33:29;;;;;;;20.80;6.97;;;10.60;92.50;;;;;;5134908;27;20049;-78
2024/01/02 03:35:55;;;;;;;24.13;7.57;;;10.50;92.50;;;;;;5134883;27;20403;-77
2024/01/02 03:38:20;;;;;;;23.48;6.50;;;10.60;92.50;;;;;;5134576;27;20042;-78
2024/01/02 03:40:46;;;;;;;15.68;7.28;;;10.60;92.60;;;;;;5134696;27;20032;-79
2024/01/02 03:43:12;;;;;;;15.27;6.38;;;10.60;92.50;;;;;;5134777;27;20061;-78
2024/01/02 03:45:38;;;;;;;16.98;7.10;;;10.60;92.60;;;;;;5134869;27;20020;-77
2024/01/02 03:48:04;;;;;;;17.42;7.10;;;10.60;92.50;;;;;;5135030;27;20538;-77
2024/01/02 03:50:29;;;;;;;19.30;6.72;;;10.50;92.50;;;;;;5134535;27;20375;-78
2024/01/02 03:52:55;;;;;;;15.18;6.38;;;10.40;92.60;;;;;;5134229;27;20039;-78
2024/01/02 03:55:21;;;;;;;19.90;6.70;;;10.30;92.60;;;;;;5134313;27;20027;-78
2024/01/02 03:57:47;;;;;;;19.40;6.90;;;10.30;92.70;;;;;;5115915;27;20039;-78
2024/01/02 04:00:13;;;;;;;18.92;7.60;;;10.30;92.80;;;;;;5134250;27;20152;-78
2024/01/02 04:02:39;;;;;;;17.55;7.18;;;10.20;92.70;;;;;;5134665;27;20050;-79
2024/01/02 04:05:07;;;;;;;16.05;6.50;;;10.20;92.80;;;;;;5134235;27;20031;-77
2024/01/02 04:07:32;;;;;;;14.40;7.00;;;10.20;92.60;;;;;;5134368;27;20031;-76
2024/01/02 04:09:58;;;;;;;19.13;7.60;;;10.20;92.80;;;;;;5134131;27;20031;-77
2024/01/02 04:12:24;;;;;;;17.23;6.72;;;10.20;92.90;;;;;;5115597;28;20042;-79
2024/01/02 04:14:50;;;;;;;19.23;7.60;;;10.20;92.90;;;;;;5134111;27;20037;-78
2024/01/02 04:17:16;;;;;;;18.23;7.55;;;10.20;92.90;;;;;;5134302;27;20114;-78
2024/01/02 04:19:41;;;;;;;19.67;7.43;;;10.20;92.90;;;;;;5134211;27;20027;-78
2024/01/02 04:22:07;;;;;;;18.73;7.82;;;10.20;92.90;;;;;;5133997;27;20027;-78
2024/01/02 04:24:33;;;;;;;20.83;7.60;;;10.10;93.00;;;;;;5134002;27;20107;-76
2024/01/02 04:26:58;;;;;;;20.08;7.90;;;10.10;93.00;;;;;;5133828;27;20479;-77
2024/01/02 04:29:24;;;;;;;17.80;7.82;;;10.20;93.00;;;;;;5137460;27;20023;-77
2024/01/02 04:31:50;;;;;;;17.83;6.70;;;10.20;92.90;;;;;;5133668;27;20031;-78
2024/01/02 04:34:15;;;;;;;17.58;6.75;;;10.20;93.10;;;;;;5133620;27;20127;-78
2024/01/02 04:36:42;;;;;;;17.15;6.25;;;10.10;93.00;;;;;;5133721;27;20390;-78
2024/01/02 04:39:08;;;;;;;16.25;6.50;;;10.10;93.10;;;;;;5133447;27;20043;-78
2024/01/02 04:41:34;;;;;;;16.48;7.25;;;10.10;93.00;;;;;;5133373;27;20027;-78
2024/01/02 04:43:59;;;;;;;15.52;6.55;;;10.10;93.00;;;;;;5133264;27;20067;-77
2024/01/02 04:46:27;;;;;;;15.65;6.22;;;10.10;92.90;;;;;;5133688;28;20034;-76
2024/01/02 04:48:56;;;;;;;18.60;7.00;;;10.10;93.00;;;;;;5133651;28;20031;-79
2024/01/02 04:51:22;;;;;;;14.00;6.63;;;10.10;93.00;;;;;;5114731;28;20031;-78
2024/01/02 04:53:47;;;;;;;18.92;6.43;;;10.00;93.00;;;;;;5133449;28;20039;-78
2024/01/02 04:56:13;;;;;;;17.58;6.53;;;10.00;93.10;;;;;;5114821;28;20443;-78
2024/01/02 04:58:39;;;;;;;20.45;6.80;;;10.00;93.00;;;;;;5133374;28;20069;-77
2024/01/02 05:01:05;;;;;;;14.68;5.93;;;10.00;93.10;;;;;;5133360;28;20080;-78
2024/01/02 05:03:31;;;;;;;18.40;6.20;;;10.00;93.10;;;;;;5133206;28;20055;-79
2024/01/02 05:05:57;;;;;;;12.57;5.65;;;10.00;92.90;;;;;;5133212;28;20046;-78
2024/01/02 05:08:22;;;;;;;15.50;6.00;;;10.00;93.00;;;;;;5133576;28;20027;-77
2024/01/02 05:10:48;;;;;;;15.45;6.32;;;10.00;92.90;;;;;;5133679;28;20088;-78
2024/01/02 05:13:14;;;;;;;17.00;5.65;;;10.00;93.00;;;;;;5133088;28;20050;-79
2024/01/02 05:15:40;;;;;;;15.38;5.65;;;10.00;93.10;;;;;;5133387;28;20078;-78
2024/01/02 05:18:06;;;;;;;14.02;6.18;;;10.00;92.90;;;;;;5133159;28;20095;-78
2024/01/02 05:20:32;;;;;;;17.10;5.80;;;10.10;92.90;;;;;;5133194;28;20023;-78
2024/01/02 05:23:03;;;;;;;14.40;6.13;;;10.10;92.90;;;;;;5132887;28;20060;-78
2024/01/02 05:25:29;;;;;;;15.05;5.65;;;10.10;92.90;;;;;;5133231;28;20137;-79
2024/01/02 05:27:55;;;;;;;18.70;6.57;;;10.00;92.80;;;;;;5132996;28;20019;-79
2024/01/02 05:30:20;;;;;;;15.80;5.97;;;10.00;92.90;;;;;;5114760;28;20114;-76
2024/01/02 05:32:46;;;;;;;17.73;5.55;;;9.90;93.30;;;;;;5133325;28;20088;-78
2024/01/02 05:35:12;;;;;;;17.00;5.55;;;9.90;93.30;;;;;;5132914;28;20041;-77
2024/01/02 05:37:37;;;;;;;16.20;5.93;;;9.90;93.30;;;;;;5133061;28;20522;-78
2024/01/02 05:40:04;;;;;;;20.42;5.35;;;9.80;93.30;;;;;;5132932;28;20475;-78
2024/01/02 05:42:29;;;;;;;18.50;5.88;;;9.80;93.40;;;;;;5133179;28;20023;-79
2024/01/02 05:44:55;;;;;;;17.80;5.53;;;9.80;93.40;;;;;;5132870;28;20043;-78
2024/01/02 05:47:21;;;;;;;14.75;5.15;;;9.90;93.40;;;;;;5133268;28;20186;-78
2024/01/02 05:49:46;;;;;;;13.43;5.50;;;9.90;93.40;;;;;;5132831;28;20042;-78
2024/01/02 05:52:12;;;;;;;19.55;5.80;;;9.90;93.40;;;;;;5117493;27;20481;-80
2024/01/02 05:54:38;;;;;;;15.60;5.50;;;9.90;93.40;;;;;;5136912;27;20066;-79
2024/01/02 05:57:04;;;;;;;14.95;5.57;;;9.90;93.30;;;;;;5137411;27;20051;-79
2024/01/02 05:59:29;;;;;;;16.90;5.60;;;9.90;93.30;;;;;;5119724;27;20367;-77
2024/01/02 06:01:55;;;;;;;14.52;5.35;;;10.00;92.90;;;;;;5136790;27;20036;-77
2024/01/02 06:04:21;;;;;;;14.93;4.90;;;9.90;93.20;;;;;;5136463;27;20035;-78
2024/01/02 06:06:47;;;;;;;13.88;4.97;;;9.90;93.30;;;;;;5117981;27;20031;-78
2024/01/02 06:09:12;;;;;;;21.02;6.13;;;9.90;93.30;;;;;;5136316;27;20032;-78
2024/01/02 06:11:38;;;;;;;14.25;5.80;;;9.90;93.30;;;;;;5136193;27;20039;-77
2024/01/02 06:14:04;;;;;;;16.17;5.72;;;9.90;93.30;;;;;;5136199;27;20042;-79
2024/01/02 06:16:29;;;;;;;12.50;5.20;;;9.90;93.30;;;;;;5136417;27;20137;-79
2024/01/02 06:18:55;;;;;;;15.52;4.90;;;9.80;93.20;;;;;;5136403;27;20435;-78
2024/01/02 06:21:21;;;;;;;16.23;5.28;;;9.80;93.30;;;;;;5136273;27;20031;-76
2024/01/02 06:23:47;;;;;;;14.95;5.25;;;9.80;93.30;;;;;;5136351;27;20392;-79
2024/01/02 06:26:12;;;;;;;12.55;5.78;;;9.80;93.30;;;;;;5136172;27;20105;-78
2024/01/02 06:28:38;;;;;;;16.55;5.13;;;9.80;93.40;;;;;;5136431;27;20046;-80
2024/01/02 06:31:07;;;;;;;23.05;7.20;;;9.80;93.30;;;;;;5135963;27;20031;-80
2024/01/02 06:33:33;;;;;;;13.15;5.75;;;9.80;93.20;;;;;;5136219;27;20116;-79
2024/01/02 06:35:59;;;;;;;14.55;5.60;;;9.80;93.30;;;;;;5135881;27;20031;-78
2024/01/02 06:38:25;;;;;;;12.88;5.60;;;9.80;93.40;;;;;;5135771;27;20035;-79
2024/01/02 06:40:51;;;;;;;15.68;5.90;;;9.90;93.30;;;;;;5136019;27;20053;-79
2024/01/02 06:43:17;;;;;;;16.25;5.47;;;9.90;93.40;;;;;;5135847;27;20043;-80
2024/01/02 06:45:43;;;;;;;16.08;6.50;;;9.90;93.30;;;;;;5135717;27;20114;-78
2024/01/02 06:48:09;;;;;;;15.23;5.70;;;9.90;93.40;;;;;;5135779;27;20394;-79
2024/01/02 06:50:34;;;;;;;15.52;6.47;;;9.90;93.20;;;;;;5135442;27;20039;-78
2024/01/02 06:53:00;;;;;;;15.15;6.85;;;9.90;93.10;;;;;;5135092;27;20035;-79
2024/01/02 06:55:26;;;;;;;17.63;6.65;;;9.90;93.20;;;;;;5135707;27;20110;-77
2024/01/02 06:57:52;;;;;;;19.08;6.63;;;9.90;93.30;;;;;;5135689;27;20114;-77
2024/01/02 07:00:18;;;;;;;14.65;6.07;;;9.90;93.20;;;;;;5135163;27;20461;-79
2024/01/02 07:02:44;;;;;;;21.85;6.72;;;10.00;92.60;;;;;;5134255;27;20061;-78
2024/01/02 07:05:14;;;;;;;16.33;6.63;;;10.20;92.70;;;;;;5135107;27;20494;-79
2024/01/02 07:07:40;;;;;;;16.92;6.40;;;10.50;92.50;;;;;;5133770;27;20041;-79
2024/01/02 07:10:06;;;;;;;20.92;6.30;;;10.80;92.20;;;;;;5135350;27;20023;-79
2024/01/02 07:12:32;;;;;;;22.95;6.63;;;11.20;91.90;;;;;;5116580;27;20043;-78
2024/01/02 07:14:58;;;;;;;15.88;5.88;;;11.50;91.50;;;;;;5135553;27;20483;-78
2024/01/02 07:17:24;;;;;;;14.50;6.05;;;11.60;91.40;;;;;;5116791;27;20115;-78
2024/01/02 07:19:51;;;;;;;15.57;5.90;;;11.70;91.40;;;;;;5116284;27;20031;-79
2024/01/02 07:22:17;;;;;;;19.70;6.22;;;11.90;91.00;;;;;;5134690;27;20023;-80
2024/01/02 07:24:44;;;;;;;17.17;7.00;;;12.10;90.80;;;;;;5134858;27;20023;-79
2024/01/02 07:27:10;;;;;;;14.95;6.18;;;12.50;90.70;;;;;;5135324;27;20406;-79
2024/01/02 07:29:35;;;;;;;13.43;5.32;;;13.00;90.30;;;;;;5134583;27;20049;-77
2024/01/02 07:32:01;;;;;;;16.08;5.90;;;13.40;89.20;;;;;;5134310;27;20436;-77
2024/01/02 07:34:27;;;;;;;13.93;5.88;;;13.80;87.70;;;;;;5134521;27;20475;-79
2024/01/02 07:36:53;;;;;;;16.73;6.15;;;14.00;86.40;;;;;;5134667;27;20031;-79
2024/01/02 07:39:18;;;;;;;12.60;5.28;;;14.10;85.40;;;;;;5134134;27;20031;-79
2024/01/02 07:41:45;;;;;;;12.15;5.25;;;13.80;85.30;;;;;;5134508;27;20447;-80
2024/01/02 07:44:10;;;;;;;12.40;5.32;;;13.20;86.50;;;;;;5134087;27;20092;-81
2024/01/02 07:46:36;;;;;;;12.85;5.47;;;12.60;87.10;;;;;;5134024;27;20027;-79
2024/01/02 07:49:02;;;;;;;11.07;4.75;;;12.30;88.20;;;;;;5134249;27;20071;-80
2024/01/02 07:51:28;;;;;;;12.82;5.85;;;11.90;88.70;;;;;;5134153;27;20061;-80
2024/01/02 07:53:54;;;;;;;17.10;5.55;;;11.70;89.30;;;;;;5134500;27;20043;-79
2024/01/02 07:56:21;;;;;;;14.48;5.53;;;11.50;89.80;;;;;;5134255;27;20070;-78
2024/01/02 07:58:46;;;;;;;12.30;6.03;;;11.40;89.60;;;;;;5134108;27;20042;-78
2024/01/02 08:01:13;;;;;;;15.23;5.47;;;11.40;89.70;;;;;;5133884;27;20023;-79
2024/01/02 08:03:39;;;;;;;12.48;5.75;;;11.40;89.80;;;;;;5133611;27;20045;-80
2024/01/02 08:06:05;;;;;;;11.82;5.75;;;11.30;89.50;;;;;;5115027;28;20034;-77
2024/01/02 08:08:31;;;;;;;14.68;6.00;;;11.30;89.50;;;;;;5133502;27;20031;-78
2024/01/02 08:10:56;;;;;;;15.02;6.80;;;11.30;89.50;;;;;;5134139;27;20023;-79
2024/01/02 08:13:22;;;;;;;18.20;6.35;;;11.30;89.30;;;;;;5114648;27;20038;-79
2024/01/02 08:15:48;;;;;;;14.60;7.80;;;11.30;89.60;;;;;;5134043;27;20031;-79
2024/01/02 08:18:13;;;;;;;11.57;6.20;;;11.30;89.30;;;;;;5133725;27;20405;-79
2024/01/02 08:20:39;;;;;;;15.30;5.40;;;11.30;89.10;;;;;;5133817;27;20039;-80
2024/01/02 08:23:05;;;;;;;20.67;5.97;;;11.30;88.40;;;;;;5133970;27;20417;-79
2024/01/02 08:25:31;;;;;;;13.15;5.60;;;11.30;88.70;;;;;;5133701;27;20046;-80
2024/01/02 08:27:57;;;;;;;14.60;5.57;;;11.30;88.80;;;;;;5133356;27;20030;-78
2024/01/02 08:30:23;;;;;;;11.80;4.90;;;11.20;88.50;;;;;;5138490;27;20039;-79
2024/01/02 08:32:49;;;;;;;12.75;4.80;;;11.20;88.30;;;;;;5136019;27;20398;-80
2024/01/02 08:35:15;;;;;;;12.45;4.82;;;11.20;88.20;;;;;;5115169;27;20039;-79
2024/01/02 08:37:41;;;;;;;13.20;5.10;;;11.10;88.10;;;;;;5133992;27;20024;-80
2024/01/02 08:40:08;;;;;;;12.20;5.25;;;11.20;88.20;;;;;;5134776;27;20039;-80
2024/01/02 08:42:34;;;;;;;15.48;5.63;;;11.20;88.50;;;;;;5133528;27;20103;-80
2024/01/02 08:44:59;;;;;;;13.43;4.90;;;11.30;88.20;;;;;;5133525;27;20466;-79
2024/01/02 08:47:25;;;;;;;13.82;4.38;;;11.30;87.80;;;;;;5133383;28;20073;-80
2024/01/02 08:49:51;;;;;;;15.32;4.97;;;11.40;87.70;;;;;;5133333;28;20344;-81
2024/01/02 08:52:17;;;;;;;14.27;5.28;;;11.30;87.30;;;;;;5133742;28;20499;-79
2024/01/02 08:54:42;;;;;;;12.20;4.75;;;11.40;87.30;;;;;;5133406;28;20045;-80
2024/01/02 08:57:08;;;;;;;13.88;5.40;;;11.40;87.40;;;;;;5136865;28;20455;-78
2024/01/02 08:59:34;;;;;;;11.90;4.68;;;11.40;87.20;;;;;;5116052;28;20031;-82
2024/01/02 09:02:00;;;;;;;13.25;4.82;;;11.50;87.40;;;;;;5134159;28;20027;-80
2024/01/02 09:04:26;;;;;;;11.07;5.20;;;11.60;87.00;;;;;;5133362;28;20111;-79
2024/01/02 09:06:51;;;;;;;12.23;4.50;;;11.60;87.40;;;;;;5133592;28;20050;-80
2024/01/02 09:09:17;;;;;;;16.35;4.57;;;11.70;86.60;;;;;;5133471;28;20023;-79
2024/01/02 09:11:44;;;;;;;14.80;4.65;;;11.70;86.40;;;;;;5114623;28;20027;-77
2024/01/02 09:14:09;;;;;;;12.30;4.68;;;11.70;86.10;;;;;;5132947;28;20050;-80
2024/01/02 09:16:38;;;;;;;12.25;5.03;;;11.80;85.80;;;;;;5133487;28;20031;-80
2024/01/02 09:19:04;;;;;;;13.63;5.13;;;11.80;85.60;;;;;;5133395;28;20079;-80
2024/01/02 09:21:30;;;;;;;9.02;4.40;;;11.90;85.40;;;;;;5133510;28;20058;-82
2024/01/02 09:23:56;;;;;;;12.13;5.43;;;11.90;85.10;;;;;;5133198;28;20024;-80
2024/01/02 09:26:25;;;;;;;13.55;5.03;;;12.00;85.10;;;;;;5134677;27;20019;-80
2024/01/02 09:28:51;;;;;;;11.52;5.25;;;12.10;85.20;;;;;;5137398;27;20093;-80
2024/01/02 09:31:18;;;;;;;12.02;4.88;;;12.10;84.90;;;;;;5137054;27;20075;-80
2024/01/02 09:33:45;;;;;;;11.18;5.07;;;12.20;85.10;;;;;;5137366;27;20046;-80
2024/01/02 09:36:12;;;;;;;16.98;5.15;;;12.30;84.80;;;;;;5137486;27;20038;-79
2024/01/02 09:38:39;;;;;;;13.05;4.72;;;12.30;84.60;;;;;;5137385;27;20023;-81
2024/01/02 09:41:32;;;;;;;16.83;5.20;;;12.30;84.40;;;;;;5137520;27;20032;-81
2024/01/02 09:44:19;;;;;;;11.73;4.85;;;12.30;84.00;;;;;;5118636;27;20532;-80
2024/01/02 09:46:44;;;;;;;12.75;4.90;;;12.40;84.50;;;;;;5139040;27;20039;-79
2024/01/02 09:49:35;;;;;;;17.92;5.50;;;12.50;84.10;;;;;;5137065;27;20030;-78
2024/01/02 09:52:39;;;;;;;11.02;5.07;;;12.60;84.50;;;;;;5135435;27;20080;-81
2024/01/02 09:55:14;;;;;;;11.57;4.70;;;12.70;84.50;;;;;;5137493;27;20130;-80
2024/01/02 09:58:13;;;;;;;15.57;5.68;;;12.80;83.80;;;;;;5136901;27;20031;-80
2024/01/02 10:01:20;;;;;;;14.57;5.10;;;12.80;84.00;;;;;;5119030;27;20103;-80
2024/01/02 10:03:51;;;;;;;14.32;5.50;;;13.00;84.10;;;;;;5124513;27;20110;-80
2024/01/02 10:06:38;;;;;;;13.40;5.03;;;13.10;83.60;;;;;;5136645;27;20076;-81
2024/01/02 10:09:26;;;;;;;17.13;5.97;;;13.20;83.80;;;;;;5117842;27;20034;-80
2024/01/02 10:12:24;;;;;;;9.75;4.97;;;13.30;83.10;;;;;;5136030;27;20391;-82
2024/01/02 10:15:21;;;;;;;11.43;4.50;;;13.50;83.40;;;;;;5136431;27;20039;-80
2024/01/02 10:18:04;;;;;;;14.93;5.13;;;13.50;82.70;;;;;;5139703;27;20554;-80
2024/01/02 10:20:59;;;;;;;15.40;5.27;;;13.70;81.60;;;;;;5134958;27;20027;-80
2024/01/02 10:23:36;;;;;;;13.52;5.22;;;13.70;81.60;;;;;;5115946;27;20046;-79
2024/01/02 10:26:04;;;;;;;16.92;5.18;;;13.80;81.10;;;;;;5136390;27;20047;-80
2024/01/02 10:28:34;;;;;;;18.20;5.20;;;13.90;80.90;;;;;;5135983;27;20046;-80
2024/01/02 10:31:04;;;;;;;12.68;5.45;;;14.10;80.90;;;;;;5136609;27;20027;-79
2024/01/02 10:33:42;;;;;;;15.98;5.53;;;14.20;80.50;;;;;;5135922;27;20502;-79
2024/01/02 10:36:12;;;;;;;13.95;5.60;;;14.30;80.30;;;;;;5135852;27;20031;-80
2024/01/02 10:39:08;;;;;;;13.00;6.97;;;14.30;79.80;;;;;;5135603;27;20563;-79
2024/01/02 10:41:46;;;;;;;12.02;5.35;;;14.40;80.10;;;;;;5135608;27;20035;-79
2024/01/02 10:44:30;;;;;;;14.07;5.10;;;14.50;80.00;;;;;;5135302;27;20089;-79
2024/01/02 10:47:00;;;;;;;;;;;14.60;79.10;;;;;;5135987;27;20027;-81
2024/01/02 10:49:38;;;;;;;11.32;4.63;;;14.70;77.70;;;;;;5135487;27;20397;-80
2024/01/02 10:52:20;;;;;;;15.68;5.03;;;14.80;79.00;;;;;;5136019;27;20037;-80
2024/01/02 10:55:08;;;;;;;12.15;4.85;;;14.90;78.40;;;;;;5136076;27;20047;-80
2024/01/02 10:57:52;;;;;;;16.60;8.07;;;15.00;78.40;;;;;;5135315;27;20031;-78
2024/01/02 11:00:24;;;;;;;11.80;5.15;;;15.00;78.00;;;;;;5116759;27;20032;-80
2024/01/02 11:03:04;;;;;;;21.17;10.35;;;15.10;77.50;;;;;;5135592;27;20106;-80
2024/01/02 11:05:41;;;;;;;29.15;14.45;;;15.20;77.30;;;;;;5136159;27;20031;-78
2024/01/02 11:08:07;;;;;;;15.25;5.93;;;15.20;77.50;;;;;;5135518;27;20030;-81
2024/01/02 11:11:06;;;;;;;15.45;4.90;;;15.20;77.10;;;;;;5134988;27;20031;-80
2024/01/02 11:13:36;;;;;;;14.07;4.45;;;15.30;77.40;;;;;;5125720;27;20491;-79
2024/01/02 11:16:17;;;;;;;18.20;5.07;;;15.40;76.90;;;;;;5135198;27;20043;-80
2024/01/02 11:18:46;;;;;;;12.38;4.90;;;15.40;76.50;;;;;;5135277;27;20432;-79
2024/01/02 11:21:30;;;;;;;19.48;8.40;;;15.50;76.30;;;;;;5135450;27;20055;-80
2024/01/02 11:24:00;;;;;;;;;;;15.60;76.50;;;;;;5135448;27;20031;-80
2024/01/02 11:26:30;;;;;;;16.85;4.80;;;15.60;75.30;;;;;;5135117;27;19926;-81
2024/01/02 11:29:00;;;;;;;10.80;4.55;;;15.70;76.20;;;;;;5134789;27;20023;-79
2024/01/02 11:31:29;;;;;;;14.55;4.60;;;15.80;76.20;;;;;;5134331;27;20032;-78
2024/01/02 11:34:32;;;;;;;16.10;4.63;;;15.90;75.90;;;;;;5135058;27;20054;-80
2024/01/02 11:37:08;;;;;;;13.27;4.60;;;16.00;75.70;;;;;;5135377;27;20037;-79
2024/01/02 11:39:46;;;;;;;11.77;4.53;;;16.10;75.60;;;;;;5135176;27;20037;-79
2024/01/02 11:42:29;;;;;;;15.75;4.65;;;16.10;75.40;;;;;;5134776;27;20458;-79
2024/01/02 11:45:12;;;;;;;13.88;4.45;;;16.20;75.50;;;;;;5116736;27;20054;-80
2024/01/02 11:47:44;;;;;;;14.40;4.63;;;16.20;75.30;;;;;;5134920;27;20110;-79
2024/01/02 11:50:13;;;;;;;12.45;4.45;;;16.20;75.20;;;;;;5115573;27;20116;-80
2024/01/02 11:52:52;;;;;;;16.10;3.78;;;16.30;74.90;;;;;;5116456;27;20063;-80
2024/01/02 11:55:55;;;;;;;9.27;3.28;;;16.40;74.80;;;;;;5134570;27;20039;-78
2024/01/02 11:58:39;;;;;;;15.30;3.90;;;16.50;74.70;;;;;;5135043;27;20112;-80
2024/01/02 12:01:30;;;;;;;;;;;16.50;74.20;;;;;;5135046;27;20031;-79
2024/01/02 12:03:55;;;;;;;13.35;4.47;;;16.50;72.10;;;;;;5134588;27;19910;-78
2024/01/02 12:06:48;;;;;;;17.75;4.57;;;16.50;73.90;;;;;;5135697;27;20031;-79
2024/01/02 12:09:19;;;;;;;15.75;4.85;;;16.60;73.80;;;;;;5128784;27;20031;-79
2024/01/02 12:12:18;;;;;;;12.70;3.97;;;16.70;73.60;;;;;;5134633;27;20019;-80
2024/01/02 12:15:07;;;;;;;17.42;4.32;;;16.60;73.10;;;;;;5116599;27;20551;-78
2024/01/02 12:17:40;;;;;;;15.65;4.60;;;16.60;72.90;;;;;;5134156;27;20031;-80
2024/01/02 12:20:09;;;;;;;17.88;4.90;;;16.60;72.80;;;;;;5134432;27;20156;-79
2024/01/02 12:22:35;;;;;;;14.18;4.07;;;16.70;72.90;;;;;;5134985;27;20031;-80
2024/01/02 12:25:04;;;;;;;13.43;3.65;;;16.70;72.30;;;;;;5134691;27;20036;-78
2024/01/02 12:27:32;;;;;;;11.13;3.50;;;16.60;71.80;;;;;;5133768;27;20080;-81
2024/01/02 12:30:08;;;;;;;13.93;3.60;;;16.60;71.90;;;;;;5132576;27;20035;-79
2024/01/02 12:32:55;;;;;;;17.63;4.38;;;16.50;71.70;;;;;;5133952;27;20043;-79
2024/01/02 12:35:28;;;;;;;14.45;4.05;;;16.40;71.80;;;;;;5133803;27;20047;-78
2024/01/02 12:37:59;;;;;;;12.40;3.70;;;16.40;71.80;;;;;;5115476;27;20050;-78
2024/01/02 12:40:29;;;;;;;18.02;4.43;;;16.40;72.20;;;;;;5133452;27;20146;-80
2024/01/02 12:42:58;;;;;;;10.75;3.53;;;16.50;72.50;;;;;;5134347;27;20035;-79
2024/01/02 12:45:33;;;;;;;19.55;4.10;;;16.60;71.50;;;;;;5116724;27;20096;-79
2024/01/02 12:48:05;;;;;;;13.57;3.30;;;16.50;70.90;;;;;;5133663;27;20465;-79